Time;durP1;ratioP1;P1;durP2;ratioP2;P2;SDS_P1;SDS_P2;PMS_P1;PMS_P2;Temp;Humidity;BMP_temperature;BMP_pressure;BME280_temperature;BME280_humidity;BME280_pressure;Samples;Min_cycle;Max_cycle;Signal;HPM_P1;HPM_P2
2022/03/11 00:00:04;;;;;;;;;;;16.20;40.40;;;;;;5024872;28;43654;-77
2022/03/11 00:02:30;;;;;;;;;;;16.10;40.30;;;;;;5024690;28;43012;-77
2022/03/11 00:04:57;;;;;;;;;;;16.20;40.50;;;;;;5024664;28;43476;-77
2022/03/11 00:07:23;;;;;;;;;;;16.10;40.40;;;;;;5025557;28;42924;-79
2022/03/11 00:09:50;;;;;;;;;;;16.20;40.50;;;;;;5025220;28;44557;-78
2022/03/11 00:12:15;;;;;;;;;;;16.10;40.40;;;;;;5024920;28;42903;-77
2022/03/11 00:14:41;;;;;;;;;;;16.20;40.50;;;;;;5024951;28;43194;-76
2022/03/11 00:17:07;;;;;;;;;;;16.10;40.40;;;;;;5025015;28;42892;-77
2022/03/11 00:19:33;;;;;;;;;;;16.10;40.50;;;;;;5024730;28;42884;-77
2022/03/11 00:21:58;;;;;;;;;;;16.10;40.50;;;;;;5025237;28;42939;-77
2022/03/11 00:24:24;;;;;;;;;;;16.10;40.40;;;;;;5025465;28;42948;-77
2022/03/11 00:26:49;;;;;;;;;;;16.10;40.40;;;;;;5024934;28;42998;-77
2022/03/11 00:29:15;;;;;;;;;;;16.10;40.50;;;;;;5012632;28;43746;-77
2022/03/11 00:31:41;;;;;;;;;;;16.10;40.60;;;;;;5003421;28;42994;-78
2022/03/11 00:34:06;;;;;;;;;;;16.20;40.70;;;;;;5004723;28;42988;-76
2022/03/11 00:36:32;;;;;;;;;;;16.10;40.50;;;;;;5005125;28;43069;-77
2022/03/11 00:38:58;;;;;;;;;;;16.20;40.50;;;;;;5004508;28;42999;-77
2022/03/11 00:41:23;;;;;;;;;;;16.10;40.40;;;;;;5005250;28;42830;-77
2022/03/11 00:43:49;;;;;;;;;;;16.20;40.50;;;;;;5005264;28;43613;-77
2022/03/11 00:46:14;;;;;;;;;;;16.20;40.50;;;;;;5004725;28;42949;-77
2022/03/11 00:48:40;;;;;;;;;;;16.20;40.40;;;;;;5005179;28;42991;-77
2022/03/11 00:51:06;;;;;;;;;;;16.20;40.50;;;;;;5005066;28;43001;-76
2022/03/11 00:53:31;;;;;;;;;;;16.00;39.90;;;;;;5006339;28;43086;-77
2022/03/11 00:55:57;;;;;;;;;;;16.20;40.50;;;;;;5009695;28;42750;-78
2022/03/11 00:58:22;;;;;;;;;;;16.20;40.50;;;;;;5006761;28;43750;-78
2022/03/11 01:00:48;;;;;;;;;;;16.20;40.60;;;;;;5004608;28;43259;-77
2022/03/11 01:03:13;;;;;;;;;;;16.20;40.60;;;;;;5004581;28;43317;-77
2022/03/11 01:05:39;;;;;;;;;;;16.20;40.50;;;;;;5004330;28;42968;-76
2022/03/11 01:08:05;;;;;;;;;;;16.10;40.50;;;;;;5004464;28;43663;-76
2022/03/11 01:10:30;;;;;;;;;;;16.20;40.50;;;;;;5001700;28;43044;-76
2022/03/11 01:12:56;;;;;;;;;;;16.10;40.50;;;;;;5003456;28;43053;-76
2022/03/11 01:15:22;;;;;;;;;;;16.20;40.50;;;;;;5004143;28;42999;-76
2022/03/11 01:17:47;;;;;;;;;;;16.10;40.00;;;;;;5004005;28;42925;-77
2022/03/11 01:20:13;;;;;;;;;;;16.10;40.60;;;;;;5016493;28;42932;-76
2022/03/11 01:22:39;;;;;;;;;;;16.10;40.40;;;;;;5024491;28;42853;-77
2022/03/11 01:25:05;;;;;;;;;;;16.20;40.50;;;;;;5024111;28;42924;-76
2022/03/11 01:27:30;;;;;;;;;;;16.10;40.50;;;;;;5023080;28;43562;-77
2022/03/11 01:29:56;;;;;;;;;;;16.20;40.60;;;;;;5023454;28;43063;-75
2022/03/11 01:32:21;;;;;;;;;;;16.20;40.60;;;;;;5023918;28;42771;-76
2022/03/11 01:34:47;;;;;;;;;;;16.20;40.50;;;;;;5023299;28;42925;-78
2022/03/11 01:37:12;;;;;;;;;;;16.10;40.50;;;;;;5023529;28;43577;-75
2022/03/11 01:39:38;;;;;;;;;;;16.20;40.50;;;;;;5023988;28;43072;-78
2022/03/11 01:42:04;;;;;;;;;;;16.20;40.50;;;;;;5023038;28;42919;-77
2022/03/11 01:44:29;;;;;;;;;;;16.20;40.60;;;;;;5022757;28;43241;-77
2022/03/11 01:46:55;;;;;;;;;;;16.10;40.50;;;;;;5023946;28;43413;-77
2022/03/11 01:49:21;;;;;;;;;;;16.20;40.50;;;;;;5023983;28;42891;-77
2022/03/11 01:51:47;;;;;;;;;;;16.10;40.70;;;;;;5023012;28;42959;-77
2022/03/11 01:54:13;;;;;;;;;;;16.20;40.50;;;;;;5023770;28;42951;-78
2022/03/11 01:56:39;;;;;;;;;;;16.20;40.60;;;;;;5025192;28;43434;-77
2022/03/11 01:59:06;;;;;;;;;;;16.10;40.40;;;;;;5026315;28;43201;-78
2022/03/11 02:01:32;;;;;;;;;;;16.20;40.60;;;;;;5026063;28;42962;-77
2022/03/11 02:03:57;;;;;;;;;;;16.20;40.60;;;;;;5025472;28;42881;-77
2022/03/11 02:06:23;;;;;;;;;;;16.20;40.60;;;;;;5026578;28;43591;-76
2022/03/11 02:08:49;;;;;;;;;;;16.20;40.50;;;;;;5026682;28;42907;-78
2022/03/11 02:11:15;;;;;;;;;;;16.20;40.60;;;;;;5026160;28;42893;-79
2022/03/11 02:13:44;;;;;;;;;;;16.10;40.60;;;;;;5026849;28;42889;-78
2022/03/11 02:16:17;;;;;;;;;;;16.10;40.60;;;;;;5026322;28;43657;-78
2022/03/11 02:18:43;;;;;;;;;;;16.20;40.60;;;;;;5026935;28;42939;-78
2022/03/11 02:21:09;;;;;;;;;;;16.20;40.60;;;;;;5026385;28;43634;-77
2022/03/11 02:23:40;;;;;;;;;;;16.20;40.70;;;;;;5026607;28;42968;-78
2022/03/11 02:26:06;;;;;;;;;;;16.20;40.60;;;;;;5026450;28;43515;-78
2022/03/11 02:28:35;;;;;;;;;;;16.20;40.70;;;;;;5025763;28;43055;-77
2022/03/11 02:31:01;;;;;;;;;;;16.20;40.80;;;;;;5024892;28;43940;-79
2022/03/11 02:33:27;;;;;;;;;;;16.20;40.70;;;;;;5025341;28;42952;-78
2022/03/11 02:35:52;;;;;;;;;;;16.20;40.60;;;;;;5025438;28;43993;-78
2022/03/11 02:38:18;;;;;;;;;;;16.20;40.80;;;;;;5025465;28;43115;-77
2022/03/11 02:40:43;;;;;;;;;;;16.20;40.60;;;;;;5026160;28;43003;-78
2022/03/11 02:43:09;;;;;;;;;;;16.20;40.70;;;;;;5025941;28;42933;-77
2022/03/11 02:45:35;;;;;;;;;;;16.20;40.70;;;;;;5024102;28;44706;-77
2022/03/11 02:48:00;;;;;;;;;;;16.20;40.60;;;;;;5026480;28;43084;-77
2022/03/11 02:50:26;;;;;;;;;;;16.10;40.70;;;;;;5026113;28;43589;-78
2022/03/11 02:52:51;;;;;;;;;;;16.10;40.70;;;;;;5025467;28;42864;-77
2022/03/11 02:55:17;;;;;;;;;;;16.20;40.60;;;;;;5025804;28;43696;-77
2022/03/11 02:57:42;;;;;;;;;;;16.10;40.60;;;;;;5025438;28;43137;-80
2022/03/11 03:00:08;;;;;;;;;;;16.10;40.70;;;;;;5025267;28;43693;-77
2022/03/11 03:02:33;;;;;;;;;;;16.20;40.70;;;;;;5024794;28;43268;-77
2022/03/11 03:04:59;;;;;;;;;;;16.10;40.60;;;;;;5024950;28;43644;-78
2022/03/11 03:07:25;;;;;;;;;;;16.20;40.70;;;;;;5026202;28;43063;-78
2022/03/11 03:09:50;;;;;;;;;;;16.20;40.70;;;;;;5025446;28;43011;-78
2022/03/11 03:12:16;;;;;;;;;;;16.10;40.60;;;;;;5025808;28;42931;-78
2022/03/11 03:14:41;;;;;;;;;;;16.10;40.60;;;;;;5025612;28;43202;-78
2022/03/11 03:17:07;;;;;;;;;;;16.10;40.60;;;;;;5025290;28;42979;-77
2022/03/11 03:19:32;;;;;;;;;;;16.20;40.70;;;;;;5025100;28;42939;-78
2022/03/11 03:21:58;;;;;;;;;;;16.10;40.60;;;;;;5025306;28;43021;-77
2022/03/11 03:24:23;;;;;;;;;;;16.20;40.70;;;;;;5025994;28;42763;-78
2022/03/11 03:26:49;;;;;;;;;;;16.10;40.70;;;;;;5023988;28;43125;-80
2022/03/11 03:29:14;;;;;;;;;;;16.10;40.70;;;;;;5025917;28;43744;-77
2022/03/11 03:31:40;;;;;;;;;;;16.10;40.20;;;;;;5026412;28;43121;-77
2022/03/11 03:34:05;;;;;;;;;;;16.20;40.70;;;;;;5026348;28;43417;-79
2022/03/11 03:36:31;;;;;;;;;;;16.20;40.60;;;;;;5029344;28;43032;-79
2022/03/11 03:38:57;;;;;;;;;;;16.10;40.10;;;;;;5025905;28;44041;-78
2022/03/11 03:41:22;;;;;;;;;;;16.20;40.90;;;;;;5023036;28;42886;-77
2022/03/11 03:43:48;;;;;;;;;;;16.20;40.80;;;;;;5025376;28;42924;-78
2022/03/11 03:46:14;;;;;;;;;;;16.20;40.70;;;;;;5025143;28;42998;-78
2022/03/11 03:48:40;;;;;;;;;;;16.20;40.80;;;;;;5025248;28;42987;-78
2022/03/11 03:51:06;;;;;;;;;;;16.20;40.90;;;;;;5025948;28;42972;-77
2022/03/11 03:53:31;;;;;;;;;;;16.20;40.80;;;;;;5025071;28;42838;-78
2022/03/11 03:55:57;;;;;;;;;;;16.10;41.60;;;;;;5024411;28;43216;-78
2022/03/11 03:58:22;;;;;;;;;;;16.10;40.80;;;;;;5024618;28;43789;-77
2022/03/11 04:00:48;;;;;;;;;;;16.10;40.80;;;;;;5024883;28;42999;-78
2022/03/11 04:03:13;;;;;;;;;;;16.20;41.00;;;;;;5024878;28;43782;-77
2022/03/11 04:05:39;;;;;;;;;;;16.20;41.00;;;;;;5025046;28;42916;-77
2022/03/11 04:08:04;;;;;;;;;;;16.10;40.30;;;;;;5023529;28;43093;-77
2022/03/11 04:10:30;;;;;;;;;;;16.10;40.90;;;;;;5024703;28;43148;-77
2022/03/11 04:12:57;;;;;;;;;;;16.20;40.90;;;;;;5023466;28;43006;-78
2022/03/11 04:15:22;;;;;;;;;;;16.10;40.80;;;;;;5020376;28;43080;-79
2022/03/11 04:17:48;;;;;;;;;;;16.20;40.90;;;;;;5004443;28;43527;-78
2022/03/11 04:20:13;;;;;;;;;;;16.20;40.90;;;;;;5003535;28;43041;-79
2022/03/11 04:22:40;;;;;;;;;;;16.20;41.00;;;;;;5003842;28;43359;-76
2022/03/11 04:25:05;;;;;;;;;;;16.20;40.80;;;;;;5004345;28;42937;-78
2022/03/11 04:27:31;;;;;;;;;;;16.20;40.80;;;;;;5004058;28;43252;-78
2022/03/11 04:29:56;;;;;;;;;;;16.20;40.90;;;;;;5013712;28;42985;-77
2022/03/11 04:32:22;;;;;;;;;;;16.20;41.00;;;;;;5023325;28;43509;-77
2022/03/11 04:34:47;;;;;;;;;;;16.10;41.00;;;;;;5023590;28;42914;-78
2022/03/11 04:37:13;;;;;;;;;;;16.10;41.00;;;;;;5023580;28;44031;-78
2022/03/11 04:39:39;;;;;;;;;;;16.20;41.00;;;;;;5023831;28;42960;-77
2022/03/11 04:42:09;;;;;;;;;;;16.10;40.40;;;;;;5023224;28;42920;-77
2022/03/11 04:44:34;;;;;;;;;;;16.20;40.90;;;;;;5024155;28;42904;-78
2022/03/11 04:47:00;;;;;;;;;;;16.10;40.40;;;;;;5023399;28;43454;-78
2022/03/11 04:49:26;;;;;;;;;;;16.10;40.80;;;;;;5024272;28;42937;-77
2022/03/11 04:51:51;;;;;;;;;;;16.10;40.40;;;;;;5024499;28;43086;-77
2022/03/11 04:54:21;;;;;;;;;;;16.10;40.40;;;;;;5022181;28;43264;-76
2022/03/11 04:56:46;;;;;;;;;;;16.20;40.40;;;;;;5023729;28;43112;-76
2022/03/11 04:59:12;;;;;;;;;;;16.20;40.90;;;;;;5023853;28;42890;-76
2022/03/11 05:01:37;;;;;;;;;;;16.10;41.00;;;;;;5024003;28;42940;-77
2022/03/11 05:04:03;;;;;;;;;;;16.10;41.00;;;;;;5023772;28;43123;-76
2022/03/11 05:06:28;;;;;;;;;;;16.20;40.40;;;;;;5024292;28;42971;-77
2022/03/11 05:08:54;;;;;;;;;;;16.20;40.40;;;;;;5023267;28;43213;-77
2022/03/11 05:11:20;;;;;;;;;;;16.10;41.00;;;;;;5023988;28;43019;-77
2022/03/11 05:13:45;;;;;;;;;;;16.20;41.50;;;;;;5024093;28;42956;-78
2022/03/11 05:16:11;;;;;;;;;;;16.20;40.40;;;;;;5013597;28;44679;-78
2022/03/11 05:18:37;;;;;;;;;;;16.20;40.90;;;;;;5003433;28;42765;-77
2022/03/11 05:21:02;;;;;;;;;;;16.20;41.10;;;;;;5004479;28;42865;-78
2022/03/11 05:23:28;;;;;;;;;;;16.20;41.70;;;;;;5004704;28;42869;-76
2022/03/11 05:25:54;;;;;;;;;;;16.20;41.10;;;;;;5014023;28;44512;-77
2022/03/11 05:28:19;;;;;;;;;;;16.10;40.80;;;;;;5013764;28;42961;-76
2022/03/11 05:30:45;;;;;;;;;;;16.20;41.20;;;;;;5013522;28;42992;-76
2022/03/11 05:33:11;;;;;;;;;;;16.10;40.50;;;;;;5018784;28;42928;-79
2022/03/11 05:35:36;;;;;;;;;;;16.10;40.60;;;;;;5012294;28;43639;-76
2022/03/11 05:38:02;;;;;;;;;;;16.20;40.60;;;;;;5020550;28;43306;-77
2022/03/11 05:40:28;;;;;;;;;;;16.10;41.40;;;;;;5017587;28;42991;-77
2022/03/11 05:42:53;;;;;;;;;;;16.10;40.60;;;;;;5016687;28;43058;-76
2022/03/11 05:45:19;;;;;;;;;;;16.10;40.70;;;;;;5018670;28;44077;-76
2022/03/11 05:47:45;;;;;;;;;;;16.10;41.30;;;;;;5026754;28;42998;-77
2022/03/11 05:50:10;;;;;;;;;;;16.10;40.70;;;;;;5023099;28;43857;-76
2022/03/11 05:52:37;;;;;;;;;;;16.20;41.30;;;;;;5026775;28;43240;-76
2022/03/11 05:55:03;;;;;;;;;;;16.20;41.10;;;;;;5025954;28;43566;-76
2022/03/11 05:57:28;;;;;;;;;;;16.10;40.70;;;;;;5025824;28;43054;-77
2022/03/11 05:59:54;;;;;;;;;;;16.20;42.00;;;;;;5026407;28;43899;-75
2022/03/11 06:02:19;;;;;;;;;;;16.10;41.40;;;;;;5012394;28;42947;-77
2022/03/11 06:04:45;;;;;;;;;;;16.10;40.90;;;;;;5023359;28;43225;-77
2022/03/11 06:07:11;;;;;;;;;;;16.10;39.90;;;;;;5026713;28;42809;-77
2022/03/11 06:09:37;;;;;;;;;;;16.10;40.00;;;;;;5025949;28;43323;-76
2022/03/11 06:12:03;;;;;;;;;;;16.00;39.40;;;;;;5025635;28;42940;-75
2022/03/11 06:14:28;;;;;;;;;;;16.00;39.70;;;;;;5025862;28;42993;-77
2022/03/11 06:16:54;;;;;;;;;;;16.00;39.10;;;;;;5027807;28;43283;-78
2022/03/11 06:19:20;;;;;;;;;;;16.00;39.00;;;;;;5027077;28;43828;-76
2022/03/11 06:21:45;;;;;;;;;;;16.00;39.50;;;;;;5026077;28;42974;-78
2022/03/11 06:24:11;;;;;;;;;;;16.00;39.40;;;;;;5011399;28;42926;-76
2022/03/11 06:26:36;;;;;;;;;;;16.00;39.60;;;;;;5022669;28;42983;-79
2022/03/11 06:29:02;;;;;;;;;;;15.90;38.70;;;;;;5025623;28;43601;-77
2022/03/11 06:31:27;;;;;;;;;;;15.80;38.30;;;;;;5026145;28;43057;-77
2022/03/11 06:33:54;;;;;;;;;;;15.80;38.90;;;;;;5026324;28;43628;-77
2022/03/11 06:36:20;;;;;;;;;;;15.90;38.80;;;;;;5025960;28;42848;-77
2022/03/11 06:38:45;;;;;;;;;;;15.80;38.90;;;;;;5026518;28;43610;-76
2022/03/11 06:41:12;;;;;;;;;;;15.80;38.60;;;;;;5025705;28;42933;-78
2022/03/11 06:43:38;;;;;;;;;;;15.80;38.50;;;;;;5025690;28;43324;-79
2022/03/11 06:46:03;;;;;;;;;;;15.80;37.90;;;;;;5026044;28;42979;-79
2022/03/11 06:48:29;;;;;;;;;;;15.80;37.50;;;;;;5026124;28;43689;-78
2022/03/11 06:50:55;;;;;;;;;;;15.70;38.20;;;;;;5026156;28;42950;-78
2022/03/11 06:53:25;;;;;;;;;;;15.70;37.70;;;;;;5021303;28;43497;-79
2022/03/11 06:55:52;;;;;;;;;;;15.70;37.80;;;;;;5025278;28;42835;-76
2022/03/11 06:58:18;;;;;;;;;;;15.70;37.50;;;;;;5023995;28;43482;-76
2022/03/11 07:00:44;;;;;;;;;;;15.70;37.00;;;;;;5023630;28;43101;-76
2022/03/11 07:03:09;;;;;;;;;;;15.70;37.10;;;;;;5026357;28;43050;-75
2022/03/11 07:05:35;;;;;;;;;;;15.90;38.90;;;;;;5026294;28;43066;-76
2022/03/11 07:08:00;;;;;;;;;;;15.70;37.30;;;;;;5025784;28;42943;-75
2022/03/11 07:10:26;;;;;;;;;;;15.90;39.50;;;;;;5026689;28;42881;-76
2022/03/11 07:12:51;;;;;;;;;;;15.70;37.90;;;;;;5026369;28;43026;-75
2022/03/11 07:15:17;;;;;;;;;;;15.70;37.80;;;;;;5026820;28;42892;-76
2022/03/11 07:17:43;;;;;;;;;;;15.70;37.80;;;;;;5026260;28;43010;-75
2022/03/11 07:20:09;;;;;;;;;;;15.70;37.70;;;;;;5026241;28;42770;-76
2022/03/11 07:22:35;;;;;;;;;;;15.70;37.70;;;;;;5026243;28;43665;-75
2022/03/11 07:25:01;;;;;;;;;;;15.70;37.20;;;;;;5026705;28;43010;-75
2022/03/11 07:27:26;;;;;;;;;;;15.70;37.10;;;;;;5026346;28;43986;-76
2022/03/11 07:29:53;;;;;;;;;;;15.60;37.20;;;;;;5026359;28;43318;-76
2022/03/11 07:32:19;;;;;;;;;;;15.80;38.80;;;;;;5026050;28;43083;-76
2022/03/11 07:34:44;;;;;;;;;;;15.70;38.80;;;;;;5026460;28;42929;-75
2022/03/11 07:37:12;;;;;;;;;;;15.60;37.20;;;;;;5025817;28;44055;-77
2022/03/11 07:39:38;;;;;;;;;;;15.60;37.10;;;;;;5026771;28;42928;-76
2022/03/11 07:42:08;;;;;;;;;;;15.60;37.20;;;;;;5026184;28;43517;-75
2022/03/11 07:44:34;;;;;;;;;;;15.60;37.00;;;;;;5026336;28;43254;-76
2022/03/11 07:47:00;;;;;;;;;;;15.60;37.00;;;;;;5024210;28;43735;-75
2022/03/11 07:49:27;;;;;;;;;;;15.60;37.60;;;;;;5025402;28;43047;-75
2022/03/11 07:51:53;;;;;;;;;;;15.70;38.50;;;;;;5024176;28;44652;-76
2022/03/11 07:54:18;;;;;;;;;;;15.70;38.60;;;;;;5025755;28;42995;-75
2022/03/11 07:56:44;;;;;;;;;;;15.60;36.90;;;;;;5025857;28;42953;-75
2022/03/11 07:59:09;;;;;;;;;;;15.70;38.50;;;;;;5025736;28;42924;-76
2022/03/11 08:01:37;;;;;;;;;;;15.70;38.50;;;;;;5024405;28;63731;-76
2022/03/11 08:04:05;;;;;;;;;;;15.70;36.70;;;;;;5025606;28;42971;-74
2022/03/11 08:06:31;;;;;;;;;;;15.70;37.20;;;;;;5026114;28;44062;-76
2022/03/11 08:08:57;;;;;;;;;;;15.70;38.20;;;;;;5025787;28;42964;-76
2022/03/11 08:11:22;;;;;;;;;;;15.60;36.50;;;;;;5025063;28;42876;-76
2022/03/11 08:13:48;;;;;;;;;;;15.60;36.40;;;;;;5025142;28;43059;-76
2022/03/11 08:16:14;;;;;;;;;;;15.60;37.30;;;;;;5025082;28;43111;-76
2022/03/11 08:18:40;;;;;;;;;;;15.80;37.80;;;;;;5025479;28;42988;-76
2022/03/11 08:21:06;;;;;;;;;;;15.70;38.00;;;;;;5025115;28;42734;-76
2022/03/11 08:23:31;;;;;;;;;;;15.60;36.20;;;;;;5025484;28;42902;-76
2022/03/11 08:25:57;;;;;;;;;;;15.60;36.10;;;;;;5025051;28;43806;-76
2022/03/11 08:28:23;;;;;;;;;;;15.70;37.80;;;;;;5025823;28;42892;-76
2022/03/11 08:30:49;;;;;;;;;;;15.60;37.60;;;;;;5025375;28;42975;-76
2022/03/11 08:33:20;;;;;;;;;;;15.50;36.00;;;;;;5025029;28;43008;-75
2022/03/11 08:35:46;;;;;;;;;;;15.60;36.00;;;;;;5024905;28;42937;-76
2022/03/11 08:38:12;;;;;;;;;;;15.60;36.90;;;;;;5024695;28;42894;-75
2022/03/11 08:40:37;;;;;;;;;;;15.50;35.90;;;;;;5025015;28;43500;-75
2022/03/11 08:43:03;;;;;;;;;;;15.60;37.50;;;;;;5025455;28;42791;-74
2022/03/11 08:45:29;;;;;;;;;;;15.50;35.90;;;;;;5025265;28;43271;-76
2022/03/11 08:47:54;;;;;;;;;;;15.50;35.80;;;;;;5025129;28;42965;-77
2022/03/11 08:50:21;;;;;;;;;;;15.50;35.60;;;;;;5025012;28;43814;-76
2022/03/11 08:52:46;;;;;;;;;;;15.50;36.40;;;;;;5025221;28;42948;-76
2022/03/11 08:55:12;;;;;;;;;;;15.50;35.50;;;;;;5025397;28;43700;-77
2022/03/11 08:57:38;;;;;;;;;;;15.50;36.40;;;;;;5026622;28;43009;-76
2022/03/11 09:00:06;;;;;;;;;;;15.70;36.40;;;;;;5024716;28;43020;-76
2022/03/11 09:02:32;;;;;;;;;;;15.60;36.30;;;;;;5025046;28;42995;-75
2022/03/11 09:04:57;;;;;;;;;;;15.50;35.20;;;;;;5024833;28;43025;-76
2022/03/11 09:07:29;;;;;;;;;;;15.70;36.90;;;;;;5024474;28;42957;-76
2022/03/11 09:09:54;;;;;;;;;;;15.60;36.60;;;;;;5024939;28;42769;-75
2022/03/11 09:12:20;;;;;;;;;;;15.50;34.60;;;;;;5024759;28;42908;-75
2022/03/11 09:14:45;;;;;;;;;;;15.60;34.80;;;;;;5024883;28;42963;-76
2022/03/11 09:17:11;;;;;;;;;;;15.80;36.50;;;;;;5025006;28;42947;-75
2022/03/11 09:19:36;;;;;;;;;;;15.60;34.70;;;;;;5024897;28;43718;-76
2022/03/11 09:22:02;;;;;;;;;;;15.60;36.50;;;;;;5024741;28;43151;-76
2022/03/11 09:24:27;;;;;;;;;;;15.50;34.60;;;;;;5024535;28;42935;-75
2022/03/11 09:26:53;;;;;;;;;;;15.50;34.50;;;;;;5024931;28;42904;-75
2022/03/11 09:29:19;;;;;;;;;;;15.40;34.40;;;;;;5024570;28;43283;-75
2022/03/11 09:31:44;;;;;;;;;;;15.50;34.40;;;;;;5024608;28;43269;-76
2022/03/11 09:34:10;;;;;;;;;;;15.50;34.50;;;;;;5024671;28;43493;-76
2022/03/11 09:36:35;;;;;;;;;;;15.40;34.40;;;;;;5024665;28;42870;-75
2022/03/11 09:39:01;;;;;;;;;;;17.40;37.20;;;;;;5022973;28;45616;-76
2022/03/11 09:41:27;;;;;;;;;;;15.40;36.10;;;;;;5024007;28;43030;-76
2022/03/11 09:43:54;;;;;;;;;;;15.40;35.10;;;;;;5024191;28;43005;-76
2022/03/11 09:46:20;;;;;;;;;;;15.70;35.50;;;;;;5022621;28;42902;-76
2022/03/11 09:48:45;;;;;;;;;;;15.50;36.20;;;;;;5024552;28;42811;-75
2022/03/11 09:51:11;;;;;;;;;;;15.50;36.00;;;;;;5024505;28;42960;-76
2022/03/11 09:53:37;;;;;;;;;;;15.30;34.40;;;;;;5024214;28;42963;-76
2022/03/11 09:56:03;;;;;;;;;;;15.30;34.20;;;;;;5024113;28;42904;-75
2022/03/11 09:58:28;;;;;;;;;;;15.40;34.30;;;;;;5024209;28;43569;-77
2022/03/11 10:00:55;;;;;;;;;;;15.40;34.20;;;;;;5023970;28;43076;-76
2022/03/11 10:03:21;;;;;;;;;;;15.40;34.40;;;;;;5023893;28;43068;-76
2022/03/11 10:05:51;;;;;;;;;;;15.50;34.40;;;;;;5023791;28;42955;-76
2022/03/11 10:08:29;;;;;;;;;;;15.40;34.90;;;;;;5024125;28;42936;-76
2022/03/11 10:10:54;;;;;;;;;;;15.40;35.20;;;;;;5023975;28;42987;-75
2022/03/11 10:13:20;;;;;;;;;;;15.40;34.40;;;;;;5024284;28;43531;-76
2022/03/11 10:15:45;;;;;;;;;;;15.40;34.30;;;;;;5024210;28;42930;-76
2022/03/11 10:18:12;;;;;;;;;;;15.40;34.40;;;;;;5025921;28;43274;-76
2022/03/11 10:20:37;;;;;;;;;;;15.50;35.90;;;;;;5027465;28;42765;-76
2022/03/11 10:23:10;;;;;;;;;;;15.50;36.10;;;;;;5027195;28;43029;-76
2022/03/11 10:25:35;;;;;;;;;;;15.50;34.80;;;;;;5027125;28;42905;-75
2022/03/11 10:28:06;;;;;;;;;;;15.30;34.30;;;;;;5026731;28;43003;-76
2022/03/11 10:30:37;;;;;;;;;;;15.30;34.30;;;;;;5027080;28;42917;-76
2022/03/11 10:33:04;;;;;;;;;;;15.40;35.30;;;;;;5026571;28;42938;-75
2022/03/11 10:35:37;;;;;;;;;;;15.30;34.30;;;;;;5025920;28;43197;-76
2022/03/11 10:38:04;;;;;;;;;;;15.50;34.90;;;;;;5027002;28;43570;-77
2022/03/11 10:40:34;;;;;;;;;;;15.50;35.30;;;;;;5027268;28;42889;-76
2022/03/11 10:43:14;;;;;;;;;;;15.50;34.90;;;;;;5026996;28;43556;-76
2022/03/11 10:45:49;;;;;;;;;;;15.50;34.90;;;;;;5026683;28;42935;-75
2022/03/11 10:48:15;;;;;;;;;;;15.40;34.70;;;;;;5026548;28;43878;-75
2022/03/11 10:50:41;;;;;;;;;;;15.40;35.30;;;;;;5026612;28;42935;-76
2022/03/11 10:53:08;;;;;;;;;;;15.60;35.30;;;;;;5026702;28;42966;-76
2022/03/11 10:55:34;;;;;;;;;;;15.50;34.40;;;;;;5026844;28;42935;-77
2022/03/11 10:58:00;;;;;;;;;;;15.60;36.00;;;;;;5026607;28;43015;-76
2022/03/11 11:00:27;;;;;;;;;;;15.70;35.30;;;;;;5027290;28;42895;-76
2022/03/11 11:02:56;;;;;;;;;;;15.60;35.40;;;;;;5026168;28;43035;-75
2022/03/11 11:05:22;;;;;;;;;;;15.60;35.40;;;;;;5026308;28;42930;-76
2022/03/11 11:07:48;;;;;;;;;;;15.50;34.50;;;;;;5026452;28;42891;-76
2022/03/11 11:10:15;;;;;;;;;;;15.50;34.70;;;;;;5026778;28;42963;-76
2022/03/11 11:12:41;;;;;;;;;;;15.50;34.60;;;;;;5026606;28;43596;-76
2022/03/11 11:15:07;;;;;;;;;;;15.50;36.20;;;;;;5026495;28;42987;-75
2022/03/11 11:17:36;;;;;;;;;;;15.30;34.90;;;;;;5026418;28;43050;-76
2022/03/11 11:20:02;;;;;;;;;;;15.70;36.00;;;;;;5026920;28;42881;-76
2022/03/11 11:22:29;;;;;;;;;;;15.40;35.20;;;;;;5026110;28;43652;-76
2022/03/11 11:24:55;;;;;;;;;;;15.40;35.00;;;;;;5024811;28;43015;-76
2022/03/11 11:27:20;;;;;;;;;;;15.30;35.40;;;;;;5026081;28;42947;-75
2022/03/11 11:29:50;;;;;;;;;;;15.40;36.90;;;;;;5025606;28;43655;-76
2022/03/11 11:32:16;;;;;;;;;;;15.50;35.80;;;;;;5025570;28;45467;-76
2022/03/11 11:34:42;;;;;;;;;;;15.50;36.20;;;;;;5026928;28;42964;-76
2022/03/11 11:37:08;;;;;;;;;;;15.40;36.90;;;;;;5025812;28;43460;-75
2022/03/11 11:39:41;;;;;;;;;;;15.50;36.90;;;;;;5025894;28;43011;-76
2022/03/11 11:42:08;;;;;;;;;;;15.60;35.60;;;;;;5025563;28;43856;-76
2022/03/11 11:44:34;;;;;;;;;;;15.60;36.10;;;;;;5026510;28;43008;-75
2022/03/11 11:47:06;;;;;;;;;;;15.50;36.00;;;;;;5026221;28;43906;-77
2022/03/11 11:49:42;;;;;;;;;;;15.60;35.60;;;;;;5025319;28;42931;-76
2022/03/11 11:52:11;;;;;;;;;;;15.70;35.80;;;;;;5025092;28;45134;-76
2022/03/11 11:54:39;;;;;;;;;;;15.50;35.30;;;;;;5026507;28;42992;-76
2022/03/11 11:57:05;;;;;;;;;;;15.50;35.40;;;;;;5025630;28;42922;-76
2022/03/11 11:59:37;;;;;;;;;;;15.80;36.40;;;;;;5025480;28;42895;-76
2022/03/11 12:02:21;;;;;;;;;;;15.50;35.20;;;;;;5025580;28;43151;-76
2022/03/11 12:04:46;;;;;;;;;;;15.40;35.10;;;;;;5025663;28;43092;-76
2022/03/11 12:07:17;;;;;;;;;;;15.40;35.00;;;;;;5024973;28;42989;-77
2022/03/11 12:09:47;;;;;;;;;;;15.60;36.00;;;;;;5025715;28;42953;-76
2022/03/11 12:12:19;;;;;;;;;;;15.50;35.90;;;;;;5025505;28;43440;-77
2022/03/11 12:15:06;;;;;;;;;;;15.50;35.40;;;;;;5025321;28;43083;-76
2022/03/11 12:17:41;;;;;;;;;;;15.40;35.20;;;;;;5023434;28;45119;-76
2022/03/11 12:20:25;;;;;;;;;;;15.50;35.40;;;;;;5025880;28;42952;-75
2022/03/11 12:22:52;;;;;;;;;;;15.60;35.30;;;;;;5025204;28;43649;-76
2022/03/11 12:25:20;;;;;;;;;;;15.30;34.80;;;;;;5025542;28;43003;-76
2022/03/11 12:28:01;;;;;;;;;;;15.40;35.60;;;;;;5024806;28;43644;-75
2022/03/11 12:30:33;;;;;;;;;;;15.30;35.10;;;;;;5025312;28;43051;-76
2022/03/11 12:33:00;;;;;;;;;;;15.40;34.60;;;;;;5025014;28;44201;-76
2022/03/11 12:35:26;;;;;;;;;;;15.50;35.30;;;;;;5025122;28;43065;-76
2022/03/11 12:37:51;;;;;;;;;;;15.40;34.60;;;;;;5024754;28;43966;-76
2022/03/11 12:40:21;;;;;;;;;;;15.40;34.50;;;;;;5025240;28;42962;-76
2022/03/11 12:42:46;;;;;;;;;;;15.50;34.90;;;;;;5024410;28;43797;-76
2022/03/11 12:45:13;;;;;;;;;;;15.60;36.30;;;;;;5025478;28;43019;-76
2022/03/11 12:47:39;;;;;;;;;;;15.60;36.10;;;;;;5025489;28;43836;-75
2022/03/11 12:50:07;;;;;;;;;;;15.50;34.50;;;;;;5024796;28;43036;-74
2022/03/11 12:52:36;;;;;;;;;;;15.60;35.40;;;;;;5024888;28;42883;-77
2022/03/11 12:55:02;;;;;;;;;;;15.50;35.00;;;;;;5025378;28;43033;-76
2022/03/11 12:57:27;;;;;;;;;;;15.40;35.30;;;;;;5024832;28;43739;-75
2022/03/11 12:59:53;;;;;;;;;;;15.40;34.50;;;;;;5025479;28;42889;-77
2022/03/11 13:02:18;;;;;;;;;;;15.50;34.60;;;;;;5024848;28;43422;-76
2022/03/11 13:04:44;;;;;;;;;;;15.50;34.50;;;;;;5024860;28;42987;-76
2022/03/11 13:07:14;;;;;;;;;;;15.50;35.40;;;;;;5023966;28;45023;-76
2022/03/11 13:09:39;;;;;;;;;;;15.50;35.40;;;;;;5024882;28;42995;-77
2022/03/11 13:12:24;;;;;;;;;;;15.40;36.30;;;;;;5024635;28;43980;-77
2022/03/11 13:15:07;;;;;;;;;;;15.50;35.00;;;;;;5024706;28;42905;-76
2022/03/11 13:17:42;;;;;;;;;;;15.50;35.50;;;;;;5024516;28;43042;-76
2022/03/11 13:20:22;;;;;;;;;;;15.50;35.50;;;;;;5024787;28;42869;-76
2022/03/11 13:22:48;;;;;;;;;;;15.40;34.60;;;;;;5024467;28;43724;-76
2022/03/11 13:25:14;;;;;;;;;;;15.50;35.50;;;;;;5024659;28;42955;-76
2022/03/11 13:27:39;;;;;;;;;;;15.50;34.70;;;;;;5024356;28;43645;-76
2022/03/11 13:30:06;;;;;;;;;;;15.50;34.70;;;;;;5024669;28;43017;-76
2022/03/11 13:32:31;;;;;;;;;;;15.50;35.60;;;;;;5024193;28;42954;-75
2022/03/11 13:34:57;;;;;;;;;;;15.60;36.60;;;;;;5024986;28;43009;-76
2022/03/11 13:37:22;;;;;;;;;;;15.40;34.70;;;;;;5024333;28;42947;-76
2022/03/11 13:40:07;;;;;;;;;;;15.40;34.70;;;;;;5023249;28;42985;-76
2022/03/11 13:42:32;;;;;;;;;;;15.50;35.30;;;;;;5024769;28;42951;-76
2022/03/11 13:45:05;;;;;;;;;;;15.40;34.70;;;;;;5024558;28;42925;-76
2022/03/11 13:47:31;;;;;;;;;;;15.50;35.10;;;;;;5023719;28;43470;-76
2022/03/11 13:50:05;;;;;;;;;;;15.50;34.60;;;;;;5024153;28;43016;-76
2022/03/11 13:52:38;;;;;;;;;;;15.60;35.40;;;;;;5025041;28;42915;-77
2022/03/11 13:55:06;;;;;;;;;;;15.60;35.20;;;;;;5027675;28;42963;-77
2022/03/11 13:57:32;;;;;;;;;;;15.80;35.40;;;;;;5027947;28;43075;-76
2022/03/11 14:00:16;;;;;;;;;;;15.80;35.50;;;;;;5028403;28;42922;-76
2022/03/11 14:02:42;;;;;;;;;;;15.70;35.50;;;;;;5027691;28;43639;-75
2022/03/11 14:05:16;;;;;;;;;;;15.50;36.10;;;;;;5027484;28;42864;-76
2022/03/11 14:07:42;;;;;;;;;;;15.50;35.40;;;;;;5028440;28;43280;-76
2022/03/11 14:10:13;;;;;;;;;;;15.50;35.30;;;;;;5029946;28;43062;-77
2022/03/11 14:12:39;;;;;;;;;;;15.50;34.90;;;;;;5027228;28;43537;-76